createdAt,value
2023-04-19T00:03:36.927Z,15.43
2023-04-19T00:09:04.413Z,15.43
2023-04-19T00:14:31.489Z,15.24
2023-04-19T00:19:58.656Z,15.32
2023-04-19T00:25:26.409Z,14.98
2023-04-19T00:30:53.503Z,14.86
2023-04-19T00:36:20.961Z,14.81
2023-04-19T00:41:48.943Z,15.07
2023-04-19T00:47:18.026Z,14.71
2023-04-19T00:52:46.670Z,14.28
2023-04-19T00:58:13.548Z,14.57
2023-04-19T01:03:42.902Z,14.70
2023-04-19T01:09:10.887Z,14.57
2023-04-19T01:14:41.645Z,13.88
2023-04-19T01:20:09.921Z,14.00
2023-04-19T01:25:36.966Z,14.24
2023-04-19T01:31:04.250Z,13.81
2023-04-19T01:36:31.683Z,13.98
2023-04-19T01:41:58.597Z,13.76
2023-04-19T01:47:26.023Z,13.58
2023-04-19T01:52:53.538Z,13.28
2023-04-19T01:58:21.361Z,14.05
2023-04-19T02:03:49.121Z,13.58
2023-04-19T02:09:17.128Z,13.46
2023-04-19T02:14:46.727Z,13.17
2023-04-19T02:20:13.903Z,13.73
2023-04-19T02:25:41.805Z,13.66
2023-04-19T02:31:09.353Z,13.60
2023-04-19T02:36:37.260Z,13.05
2023-04-19T02:42:05.940Z,13.15
2023-04-19T02:47:33.256Z,12.69
2023-04-19T02:53:01.275Z,12.64
2023-04-19T02:58:30.787Z,12.92
2023-04-19T03:04:02.911Z,13.20
2023-04-19T03:09:30.814Z,13.29
2023-04-19T03:14:58.868Z,12.83
2023-04-19T03:20:27.710Z,12.63
2023-04-19T03:25:57.429Z,12.82
2023-04-19T03:31:54.048Z,12.72
2023-04-19T03:37:20.936Z,12.63
2023-04-19T03:42:49.106Z,12.81
2023-04-19T03:48:29.400Z,12.64
2023-04-19T03:53:57.133Z,12.79
2023-04-19T03:59:25.357Z,12.69
2023-04-19T04:04:56.191Z,12.12
2023-04-19T04:10:24.152Z,11.99
2023-04-19T04:15:52.223Z,12.06
2023-04-19T04:21:19.323Z,12.08
2023-04-19T04:26:50.231Z,14.80
2023-04-19T04:32:29.217Z,-143.37
2023-04-19T04:38:04.471Z,-143.37
2023-04-19T04:43:40.063Z,-143.37
2023-04-19T04:49:08.253Z,-143.37
2023-04-19T04:54:36.444Z,-143.37
